Time;durP1;ratioP1;P1;durP2;ratioP2;P2;SDS_P1;SDS_P2;PMS_P1;PMS_P2;Temp;Humidity;BMP_temperature;BMP_pressure;BME280_temperature;BME280_humidity;BME280_pressure;Samples;Min_cycle;Max_cycle;Signal;HPM_P1;HPM_P2
2023/07/11 00:00:51;;;;;;;;;6.25;6.25;;;;;23.57;37.48;101436.63;4914531;28;48277;-94
2023/07/11 00:03:16;;;;;;;;;4.25;4.25;;;;;23.43;37.28;101421.81;4914258;28;45415;-95
2023/07/11 00:05:42;;;;;;;;;5.25;5.25;;;;;23.49;38.00;101428.44;4909461;28;45992;-94
2023/07/11 00:08:08;;;;;;;;;2.67;2.67;;;;;23.37;37.80;101410.81;4929289;28;45482;-95
2023/07/11 00:10:34;;;;;;;;;3.50;3.25;;;;;23.37;38.19;101409.00;4930722;28;47501;-94
2023/07/11 00:13:00;;;;;;;;;5.00;5.00;;;;;23.30;38.12;101399.81;4906418;28;45454;-95
2023/07/11 00:15:25;;;;;;;;;5.00;5.00;;;;;23.39;38.31;101419.50;4908154;28;45354;-94
2023/07/11 00:17:51;;;;;;;;;7.00;5.33;;;;;23.24;38.31;101398.50;4916849;28;45566;-94
2023/07/11 00:20:18;;;;;;;;;6.75;5.00;;;;;23.23;39.17;101391.50;4912378;28;47389;-96
2023/07/11 00:22:45;;;;;;;;;9.00;5.00;;;;;23.11;38.85;101389.81;4912268;28;45508;-96
2023/07/11 00:25:11;;;;;;;;;5.00;5.00;;;;;23.22;39.29;101405.72;4920570;28;45365;-94
2023/07/11 00:27:37;;;;;;;;;6.00;5.00;;;;;23.20;39.04;101405.03;4919523;28;45541;-95
2023/07/11 00:30:04;;;;;;;;;5.67;5.67;;;;;23.08;39.20;101394.41;4929527;28;47425;-95
2023/07/11 00:32:29;;;;;;;;;4.33;4.33;;;;;22.99;38.95;101384.50;4916966;28;45701;-95
2023/07/11 00:34:55;;;;;;;;;6.00;6.00;;;;;23.01;39.49;101392.38;4918540;28;45380;-93
2023/07/11 00:37:21;;;;;;;;;7.00;3.67;;;;;22.96;39.49;101385.59;4906691;28;45440;-94
2023/07/11 00:39:46;;;;;;;;;7.50;6.50;;;;;22.84;39.35;101375.97;4914085;28;47096;-96
2023/07/11 00:42:12;;;;;;;;;4.75;4.75;;;;;22.95;39.92;101398.97;4929647;28;45474;-94
2023/07/11 00:44:50;;;;;;;;;4.25;4.25;;;;;22.97;39.85;101402.38;4912311;28;45436;-94
2023/07/11 00:47:16;;;;;;;;;6.33;6.33;;;;;22.94;39.95;101399.94;4917107;28;45625;-95
2023/07/11 00:49:41;;;;;;;;;4.33;4.33;;;;;22.76;39.70;101381.88;4913473;28;47008;-95
2023/07/11 00:52:07;;;;;;;;;7.67;5.67;;;;;22.86;40.33;101389.13;4915939;28;45353;-93
2023/07/11 00:54:35;;;;;;;;;6.00;6.00;;;;;22.79;39.88;101386.09;4930445;28;45390;-95
2023/07/11 00:57:04;;;;;;;;;6.33;4.67;;;;;22.78;40.32;101384.41;4899704;28;45465;-93
2023/07/11 00:59:30;;;;;;;;;6.00;6.00;;;;;22.73;40.33;101378.59;4909456;28;47684;-94
2023/07/11 01:02:19;;;;;;;;;4.75;4.75;;;;;22.70;40.41;101385.00;4927340;28;45552;-93
2023/07/11 01:04:45;;;;;;;;;7.25;5.00;;;;;22.75;40.46;101390.78;4916129;28;45593;-94
2023/07/11 01:07:13;;;;;;;;;6.00;4.75;;;;;22.72;40.70;101393.66;4916897;28;46234;-93
2023/07/11 01:09:39;;;;;;;;;6.00;6.00;;;;;22.66;40.48;101380.88;4915843;28;48568;-94
2023/07/11 01:12:08;;;;;;;;;4.67;4.67;;;;;22.62;40.86;101387.38;4916834;28;45370;-94
2023/07/11 01:14:35;;;;;;;;;7.00;6.33;;;;;22.64;40.75;101394.25;4903011;29;45252;-94
2023/07/11 01:17:01;;;;;;;;;5.33;4.33;;;;;22.56;41.04;101388.72;4914839;28;45380;-95
2023/07/11 01:19:26;;;;;;;;;7.00;6.00;;;;;22.49;41.28;101372.38;4931982;28;47392;-95
2023/07/11 01:21:52;;;;;;;;;5.00;5.00;;;;;22.40;40.87;101366.00;4915648;28;45483;-95
2023/07/11 01:24:18;;;;;;;;;4.00;4.00;;;;;22.46;41.01;101377.09;4916170;28;45429;-94
2023/07/11 01:26:43;;;;;;;;;4.25;4.25;;;;;22.50;41.44;101386.50;4931495;28;45887;-94
2023/07/11 01:29:10;;;;;;;;;4.33;3.00;;;;;22.37;41.26;101362.72;4905286;28;47350;-94
2023/07/11 01:31:35;;;;;;;;;5.00;5.00;;;;;22.43;41.19;101383.47;4910886;28;45398;-94
2023/07/11 01:34:07;;;;;;;;;4.33;4.33;;;;;22.27;41.24;101368.72;4911844;28;45379;-93
2023/07/11 01:36:33;;;;;;;;;6.00;5.67;;;;;22.37;41.48;101382.16;4916134;28;45532;-95
2023/07/11 01:39:00;;;;;;;;;5.75;5.00;;;;;22.22;41.39;101365.56;4904891;28;47370;-93
2023/07/11 01:41:25;;;;;;;;;5.33;4.00;;;;;22.24;41.51;101368.97;4918503;28;45314;-94
2023/07/11 01:43:52;;;;;;;;;2.67;2.00;;;;;22.12;41.88;101354.84;4929445;28;45310;-94
2023/07/11 01:46:17;;;;;;;;;5.33;5.33;;;;;22.21;41.89;101374.50;4920603;28;45561;-94
2023/07/11 01:48:43;;;;;;;;;7.50;6.50;;;;;22.22;41.69;101381.47;4915836;28;47202;-93
2023/07/11 01:51:08;;;;;;;;;4.50;4.25;;;;;22.02;42.11;101353.84;4926567;28;46198;-93
2023/07/11 01:53:33;;;;;;;;;7.00;6.00;;;;;22.01;42.43;101353.00;4916226;28;45334;-95
2023/07/11 01:56:02;;;;;;;;;5.25;4.00;;;;;22.13;42.06;101372.44;4903679;28;45495;-94
2023/07/11 01:58:28;;;;;;;;;6.00;6.00;;;;;22.02;42.73;101356.50;4905048;28;48391;-94
2023/07/11 02:00:55;;;;;;;;;6.00;5.67;;;;;21.99;42.65;101348.78;4913181;28;46172;-94
2023/07/11 02:03:21;;;;;;;;;6.33;4.00;;;;;21.94;42.97;101346.47;4910313;28;45327;-94
2023/07/11 02:05:46;;;;;;;;;4.00;4.00;;;;;21.99;42.70;101356.72;4914812;28;45328;-94
2023/07/11 02:08:11;;;;;;;;;4.25;4.25;;;;;22.01;42.35;101360.09;4918265;28;47495;-94
2023/07/11 02:10:37;;;;;;;;;4.50;4.50;;;;;21.90;43.14;101345.03;4930334;28;45263;-94
2023/07/11 02:13:02;;;;;;;;;5.67;5.67;;;;;21.96;43.08;101349.84;4900979;28;45338;-95
2023/07/11 02:15:28;;;;;;;;;4.00;3.33;;;;;21.81;42.29;101329.81;4904566;28;44943;-94
2023/07/11 02:17:53;;;;;;;;;3.50;3.50;;;;;21.84;43.34;101342.84;4916610;28;47378;-93
2023/07/11 02:20:18;;;;;;;;;6.25;4.50;;;;;21.82;43.23;101340.28;4929972;28;44809;-95
2023/07/11 02:22:43;;;;;;;;;7.00;6.00;;;;;21.84;43.23;101340.19;4915204;28;45698;-94
2023/07/11 02:25:09;;;;;;;;;5.67;4.00;;;;;21.80;43.14;101336.91;4914131;28;45355;-94
2023/07/11 02:27:34;;;;;;;;;6.00;4.00;;;;;21.79;43.25;101337.03;4902243;28;48287;-95
2023/07/11 02:30:00;;;;;;;;;9.50;5.50;;;;;21.70;43.20;101320.84;4904901;28;45684;-94
2023/07/11 02:32:25;;;;;;;;;3.75;3.00;;;;;21.69;43.55;101315.63;4916845;28;45795;-95
2023/07/11 02:34:51;;;;;;;;;7.50;5.75;;;;;21.72;42.92;101329.53;4906362;28;45562;-93
2023/07/11 02:37:16;;;;;;;;;3.75;3.75;;;;;21.71;42.90;101321.72;4918812;28;46819;-94
2023/07/11 02:39:42;;;;;;;;;5.67;3.67;;;;;21.67;43.54;101321.06;4917452;28;45725;-94
2023/07/11 02:42:07;;;;;;;;;4.00;4.00;;;;;21.72;42.97;101326.88;4906714;28;45447;-94
2023/07/11 02:44:32;;;;;;;;;4.67;4.67;;;;;21.67;43.22;101318.41;4912854;28;45298;-93
2023/07/11 02:46:58;;;;;;;;;3.75;3.00;;;;;21.66;42.81;101308.75;4912190;28;47564;-93
2023/07/11 02:49:23;;;;;;;;;6.25;4.25;;;;;21.57;42.83;101298.88;4919947;28;45251;-94
2023/07/11 02:51:49;;;;;;;;;4.00;4.00;;;;;21.70;42.97;101323.50;4916371;28;45356;-95
2023/07/11 02:54:14;;;;;;;;;6.00;6.00;;;;;21.69;43.25;101315.63;4910676;28;45536;-94
2023/07/11 02:56:40;;;;;;;;;5.00;3.00;;;;;21.54;43.32;101307.88;4914141;28;47575;-95
2023/07/11 02:59:05;;;;;;;;;5.25;5.00;;;;;21.56;43.22;101302.47;4911802;28;45432;-94
2023/07/11 03:01:31;;;;;;;;;5.25;5.00;;;;;21.56;43.32;101305.13;4904573;28;45436;-95
2023/07/11 03:03:57;;;;;;;;;4.00;3.25;;;;;21.63;43.27;101309.00;4914612;28;45777;-94
2023/07/11 03:06:22;;;;;;;;;4.50;4.50;;;;;21.59;43.66;101305.75;4902243;28;47685;-94
2023/07/11 03:08:48;;;;;;;;;3.25;3.25;;;;;21.60;43.81;101312.72;4935065;28;45913;-93
2023/07/11 03:11:14;;;;;;;;;7.00;5.00;;;;;21.59;43.07;101316.34;4934102;28;45380;-95
2023/07/11 03:13:39;;;;;;;;;7.00;4.67;;;;;21.48;43.18;101290.63;4917703;28;44960;-94
2023/07/11 03:16:05;;;;;;;;;6.33;4.00;;;;;21.53;43.12;101305.34;4909923;28;46760;-95
2023/07/11 03:18:31;;;;;;;;;4.33;4.33;;;;;21.57;43.17;101302.34;4919774;28;45308;-96
2023/07/11 03:20:58;;;;;;;;;3.00;3.00;;;;;21.38;43.59;101273.72;4915673;28;45510;-96
2023/07/11 03:23:24;;;;;;;;;5.33;3.67;;;;;21.53;43.65;101297.41;4935000;28;45646;-93
2023/07/11 03:25:49;;;;;;;;;4.00;4.00;;;;;21.38;43.28;101264.97;4917246;28;47445;-95
2023/07/11 03:28:15;;;;;;;;;4.00;4.00;;;;;21.40;43.32;101273.63;4916528;28;45771;-94
2023/07/11 03:30:40;;;;;;;;;5.00;4.75;;;;;21.52;43.46;101291.25;4910292;28;45071;-94
2023/07/11 03:33:06;;;;;;;;;4.00;3.00;;;;;21.52;43.14;101290.41;4917620;28;45288;-94
2023/07/11 03:35:32;;;;;;;;;7.33;6.00;;;;;21.51;43.33;101291.38;4918868;28;47213;-95
2023/07/11 03:37:57;;;;;;;;;1.33;1.33;;;;;21.44;43.86;101278.56;4912418;28;46713;-94
2023/07/11 03:40:24;;;;;;;;;4.25;4.25;;;;;21.31;43.49;101260.13;4917066;28;45088;-94
2023/07/11 03:42:49;;;;;;;;;5.00;5.00;;;;;21.43;43.58;101279.53;4917922;28;44797;-94
2023/07/11 03:45:15;;;;;;;;;4.00;4.00;;;;;21.32;43.69;101263.59;4917601;28;47495;-94
2023/07/11 03:47:40;;;;;;;;;5.67;5.67;;;;;21.42;43.34;101275.22;4930419;28;46023;-94
2023/07/11 03:50:06;;;;;;;;;6.67;5.00;;;;;21.35;43.73;101268.69;4911773;28;48014;-94
2023/07/11 03:52:31;;;;;;;;;6.00;6.00;;;;;21.40;43.52;101276.28;4905513;28;45495;-93
2023/07/11 03:54:57;;;;;;;;;6.00;5.67;;;;;21.43;43.75;101279.53;4902557;28;47380;-94
2023/07/11 03:57:22;;;;;;;;;6.00;6.00;;;;;21.33;44.05;101260.00;4902801;28;45316;-95
2023/07/11 03:59:48;;;;;;;;;4.33;4.33;;;;;21.32;43.76;101266.25;4919100;28;45452;-94
2023/07/11 04:02:13;;;;;;;;;3.67;2.33;;;;;21.25;44.07;101249.13;4934366;28;45366;-95
2023/07/11 04:04:39;;;;;;;;;6.00;6.00;;;;;21.39;44.52;101275.44;4918251;28;47276;-95
2023/07/11 04:07:04;;;;;;;;;7.67;6.00;;;;;21.31;44.01;101265.41;4926956;28;45509;-94
2023/07/11 04:09:30;;;;;;;;;4.33;4.33;;;;;21.37;43.98;101272.06;4914193;28;45305;-94
2023/07/11 04:11:56;;;;;;;;;5.00;5.00;;;;;21.33;44.41;101265.28;4905876;28;45365;-94
2023/07/11 04:14:21;;;;;;;;;4.00;4.00;;;;;21.24;44.28;101250.94;4931336;28;47495;-95
2023/07/11 04:16:47;;;;;;;;;6.00;4.00;;;;;21.24;44.22;101243.00;4916521;28;46165;-95
2023/07/11 04:19:12;;;;;;;;;6.33;6.00;;;;;21.27;44.70;101248.06;4931084;28;45485;-94
2023/07/11 04:21:38;;;;;;;;;6.33;5.00;;;;;21.25;44.41;101243.84;4906591;28;45317;-94
2023/07/11 04:24:03;;;;;;;;;6.33;4.67;;;;;21.30;44.37;101250.47;4929700;28;47154;-94
2023/07/11 04:26:29;;;;;;;;;6.33;4.00;;;;;21.26;44.21;101250.81;4915298;28;45563;-94
2023/07/11 04:28:54;;;;;;;;;6.00;5.67;;;;;21.28;44.39;101260.34;4929585;28;45478;-94
2023/07/11 04:31:21;;;;;;;;;4.67;4.67;;;;;21.23;44.81;101244.81;4925619;28;46055;-93
2023/07/11 04:33:46;;;;;;;;;7.33;7.33;;;;;21.26;44.89;101250.81;4912612;28;47304;-95
2023/07/11 04:36:14;;;;;;;;;4.00;3.00;;;;;21.30;44.71;101255.75;4906889;28;45500;-95
2023/07/11 04:38:39;;;;;;;;;6.33;5.33;;;;;21.29;44.55;101255.91;4917322;28;45323;-93
2023/07/11 04:41:06;;;;;;;;;6.00;5.00;;;;;21.18;45.10;101233.72;4929973;28;45083;-94
2023/07/11 04:43:35;;;;;;;;;6.00;6.00;;;;;21.31;45.17;101248.69;4903973;28;47132;-94
2023/07/11 04:46:05;;;;;;;;;6.33;6.00;;;;;21.30;44.96;101247.81;4910571;28;45847;-94
2023/07/11 04:48:31;;;;;;;;;7.00;4.00;;;;;21.16;44.95;101226.84;4920745;28;45649;-95
2023/07/11 04:50:59;;;;;;;;;12.00;7.67;;;;;21.28;45.10;101247.09;4914126;28;45311;-94
2023/07/11 04:53:26;;;;;;;;;9.00;8.00;;;;;21.30;45.53;101244.34;4920559;28;47668;-95
2023/07/11 04:56:43;;;;;;;;;10.50;7.00;;;;;21.36;45.05;101249.19;4909659;28;45698;-91
2023/07/11 04:59:29;;;;;;;;;8.33;6.33;;;;;21.25;45.34;101230.63;4876797;29;45503;-91
2023/07/11 05:02:00;;;;;;;;;6.33;5.00;;;;;21.36;45.51;101244.75;4842575;29;45554;-90
2023/07/11 05:04:57;;;;;;;;;10.33;8.67;;;;;21.38;45.57;101244.63;4860710;29;47032;-94
2023/07/11 05:07:23;;;;;;;;;6.33;6.33;;;;;21.33;45.53;101238.81;4802821;29;45461;-95
2023/07/11 05:09:55;;;;;;;;;8.33;5.00;;;;;21.43;45.45;101249.59;4790284;29;45435;-96
2023/07/11 05:12:20;;;;;;;;;8.33;7.00;;;;;21.45;45.60;101242.38;4792630;29;45539;-94
2023/07/11 05:14:45;;;;;;;;;5.67;5.00;;;;;21.38;45.49;101231.38;4790327;29;47024;-95
2023/07/11 05:17:11;;;;;;;;;9.00;5.33;;;;;21.47;45.37;101246.59;4793681;29;45392;-93
2023/07/11 05:19:36;;;;;;;;;5.00;5.00;;;;;21.38;45.49;101228.72;4791673;29;45566;-94
2023/07/11 05:22:02;;;;;;;;;7.00;6.00;;;;;21.49;45.86;101234.06;4805891;29;46813;-94
2023/07/11 05:24:29;;;;;;;;;10.33;6.67;;;;;21.58;45.90;101242.31;4789154;29;47585;-95
2023/07/11 05:26:55;;;;;;;;;6.00;6.00;;;;;21.44;45.66;101214.22;4803811;29;45656;-94
2023/07/11 05:29:20;;;;;;;;;6.67;6.67;;;;;21.59;45.74;101231.59;4808830;29;45817;-94
2023/07/11 05:31:45;;;;;;;;;8.67;5.00;;;;;21.59;45.89;101231.59;4811083;29;45506;-95
2023/07/11 05:34:11;;;;;;;;;6.67;4.33;;;;;21.66;45.47;101231.97;4875625;29;48428;-94
2023/07/11 05:36:37;;;;;;;;;6.00;6.00;;;;;21.73;46.04;101229.72;4876370;29;45358;-94
2023/07/11 05:39:10;;;;;;;;;5.67;5.33;;;;;21.69;45.76;101226.44;4903789;28;45520;-95
2023/07/11 05:41:37;;;;;;;;;5.33;4.33;;;;;21.68;45.71;101221.25;4921734;28;45282;-94
2023/07/11 05:44:04;;;;;;;;;6.67;6.67;;;;;21.77;46.02;101225.91;4908713;28;47529;-94
2023/07/11 05:46:30;;;;;;;;;5.33;5.33;;;;;21.92;46.15;101230.97;4916583;28;45305;-94
2023/07/11 05:48:57;;;;;;;;;6.67;6.00;;;;;21.81;45.27;101214.13;4911277;28;45322;-95
2023/07/11 05:51:23;;;;;;;;;6.33;5.00;;;;;21.96;45.55;101229.78;4907307;28;45296;-95
2023/07/11 05:53:50;;;;;;;;;6.00;6.00;;;;;22.03;45.92;101245.09;4915392;28;48090;-96
2023/07/11 05:56:17;;;;;;;;;5.67;5.00;;;;;22.06;45.14;101238.72;4904751;28;46226;-94
2023/07/11 05:58:43;;;;;;;;;6.33;4.67;;;;;21.94;44.90;101211.34;4912735;28;45619;-94
2023/07/11 06:01:23;;;;;;;;;5.00;5.00;;;;;22.07;45.22;101226.31;4925490;28;45295;-94
2023/07/11 06:03:50;;;;;;;;;5.67;5.00;;;;;22.10;44.78;101226.06;4913091;28;47384;-96
2023/07/11 06:06:17;;;;;;;;;8.00;5.33;;;;;22.08;45.08;101218.22;4916039;28;45429;-95
2023/07/11 06:08:42;;;;;;;;;7.33;5.33;;;;;22.25;45.14;101243.44;4926231;28;45472;-94
2023/07/11 06:11:08;;;;;;;;;6.67;6.00;;;;;22.21;45.15;101222.59;4915424;28;45716;-94
2023/07/11 06:13:36;;;;;;;;;5.67;5.67;;;;;22.16;45.56;101204.38;4932940;28;47293;-95
2023/07/11 06:16:12;;;;;;;;;5.00;5.00;;;;;22.32;45.38;101224.38;4927618;28;45366;-94
2023/07/11 06:18:38;;;;;;;;;6.00;6.00;;;;;22.29;44.75;101207.78;4914342;28;45723;-94
2023/07/11 06:21:06;;;;;;;;;6.67;6.00;;;;;22.38;44.99;101219.47;4914912;28;45258;-95
2023/07/11 06:23:32;;;;;;;;;7.00;4.33;;;;;22.52;45.10;101228.13;4904670;28;47145;-95
2023/07/11 06:25:57;;;;;;;;;4.33;4.33;;;;;22.53;44.99;101211.25;4924757;28;45962;-96
2023/07/11 06:28:23;;;;;;;;;4.00;4.00;;;;;22.49;44.99;101205.34;4905946;28;44866;-96
2023/07/11 06:30:49;;;;;;;;;8.50;6.50;;;;;22.58;44.57;101205.63;4917542;28;45560;-96
2023/07/11 06:33:17;;;;;;;;;8.00;6.00;;;;;22.76;44.98;101229.78;4917257;28;48252;-95
2023/07/11 06:35:48;;;;;;;;;3.67;3.33;;;;;22.83;44.96;101221.22;4927840;28;46182;-95
2023/07/11 06:38:14;;;;;;;;;8.33;6.33;;;;;22.80;45.27;101212.66;4902338;28;45469;-95
2023/07/11 06:40:39;;;;;;;;;6.33;5.67;;;;;22.88;44.88;101212.91;4903613;28;45552;-95
2023/07/11 06:43:04;;;;;;;;;7.00;6.33;;;;;22.93;44.38;101215.19;4911574;28;47515;-95
2023/07/11 06:45:30;;;;;;;;;6.00;6.00;;;;;22.85;44.83;101185.78;4909341;28;45908;-94
2023/07/11 06:47:55;;;;;;;;;10.33;5.33;;;;;23.11;44.22;101223.47;4928431;28;45483;-94
2023/07/11 06:50:20;;;;;;;;;8.00;4.00;;;;;23.05;44.29;101192.13;4912985;28;45464;-96
2023/07/11 06:52:46;;;;;;;;;7.00;4.00;;;;;23.25;44.13;101210.84;4912452;28;46883;-94
2023/07/11 06:55:12;;;;;;;;;5.67;5.33;;;;;23.25;43.80;101205.53;4901112;29;45365;-95
2023/07/11 06:57:38;;;;;;;;;5.00;3.33;;;;;23.23;43.66;101187.06;4914587;28;45416;-93
2023/07/11 07:00:05;;;;;;;;;1.33;1.33;;;;;23.35;43.81;101198.53;4927773;28;45493;-94
2023/07/11 07:02:30;;;;;;;;;2.67;2.00;;;;;23.50;43.54;101209.66;4907192;28;48326;-94
2023/07/11 07:04:56;;;;;;;;;4.33;2.33;;;;;23.52;43.58;101198.94;4906012;28;45546;-95
2023/07/11 07:07:21;;;;;;;;;3.33;3.33;;;;;23.51;43.19;101187.44;4917152;28;45505;-94
2023/07/11 07:09:46;;;;;;;;;3.00;3.00;;;;;23.69;43.17;101205.47;4913083;28;45413;-94
2023/07/11 07:12:12;;;;;;;;;3.00;3.00;;;;;23.76;43.29;101206.63;4934632;28;47166;-95
2023/07/11 07:14:38;;;;;;;;;3.00;3.00;;;;;23.68;42.76;101180.72;4918736;28;45514;-94
2023/07/11 07:17:03;;;;;;;;;2.00;1.00;;;;;23.78;42.84;101186.09;4919958;28;45406;-95
2023/07/11 07:19:29;;;;;;;;;3.00;3.00;;;;;23.95;42.77;101189.97;4916118;28;44997;-95
2023/07/11 07:21:54;;;;;;;;;5.67;3.00;;;;;24.00;42.54;101193.06;4933937;28;48073;-94
2023/07/11 07:24:19;;;;;;;;;4.00;4.00;;;;;23.93;42.58;101181.25;4912266;28;45741;-94
2023/07/11 07:26:45;;;;;;;;;3.33;3.00;;;;;24.11;42.70;101202.78;4916848;28;45486;-93
2023/07/11 07:29:10;;;;;;;;;3.67;3.67;;;;;24.07;42.37;101177.41;4908685;28;44896;-94
2023/07/11 07:31:36;;;;;;;;;2.67;2.67;;;;;24.27;42.13;101199.66;4941243;28;47442;-94
2023/07/11 07:34:01;;;;;;;;;3.67;3.67;;;;;24.27;41.96;101182.84;4935820;28;45445;-96
2023/07/11 07:36:27;;;;;;;;;3.67;3.00;;;;;24.36;42.26;101187.38;4923803;28;45449;-95
2023/07/11 07:38:52;;;;;;;;;3.67;3.00;;;;;24.39;42.03;101167.63;4901218;28;44934;-94
2023/07/11 07:41:21;;;;;;;;;5.00;3.00;;;;;24.53;42.08;101180.53;4920059;28;47278;-94
2023/07/11 07:43:46;;;;;;;;;3.67;3.33;;;;;24.61;41.79;101185.16;4900773;29;45328;-96
2023/07/11 07:46:17;;;;;;;;;3.00;3.00;;;;;24.60;42.23;101170.19;4900663;28;45314;-93
2023/07/11 07:48:43;;;;;;;;;4.67;4.00;;;;;24.72;41.69;101170.06;4905598;28;45413;-94
2023/07/11 07:51:12;;;;;;;;;2.33;2.00;;;;;24.64;41.45;101146.81;4933697;28;47690;-94
2023/07/11 07:53:37;;;;;;;;;7.00;5.00;;;;;24.88;41.44;101183.72;4918749;28;45341;-95
2023/07/11 07:56:05;;;;;;;;;3.67;3.67;;;;;24.95;41.31;101182.16;4917602;28;45553;-94
2023/07/11 07:58:31;;;;;;;;;5.33;4.00;;;;;25.00;41.68;101175.59;4909925;28;45457;-93
2023/07/11 08:00:57;;;;;;;;;4.00;3.00;;;;;24.97;41.07;101151.91;4922946;28;47503;-93
2023/07/11 08:03:22;;;;;;;;;2.67;2.67;;;;;24.92;40.83;101142.53;4908502;28;45379;-95
2023/07/11 08:05:47;;;;;;;;;2.67;2.67;;;;;25.13;41.04;101157.50;4903318;28;45315;-96
2023/07/11 08:08:13;;;;;;;;;2.67;2.00;;;;;25.30;40.99;101179.06;4918517;28;45349;-94
2023/07/11 08:10:38;;;;;;;;;5.33;3.67;;;;;25.35;40.85;101158.19;4935092;28;47696;-95
2023/07/11 08:13:03;;;;;;;;;2.33;2.33;;;;;25.42;40.77;101163.78;4918049;28;45510;-93
2023/07/11 08:15:29;;;;;;;;;5.00;2.33;;;;;25.34;40.60;101137.88;4902154;28;45561;-95
2023/07/11 08:17:54;;;;;;;;;3.00;3.00;;;;;25.54;40.86;101154.69;4908011;28;45563;-94
2023/07/11 08:20:19;;;;;;;;;3.33;3.33;;;;;25.45;40.68;101131.53;4921567;28;47280;-95
2023/07/11 08:22:45;;;;;;;;;3.00;3.00;;;;;25.69;40.69;101146.22;4909648;28;45483;-94
2023/07/11 08:25:11;;;;;;;;;3.67;3.33;;;;;25.73;40.49;101139.63;4903916;28;45360;-95
2023/07/11 08:27:37;;;;;;;;;5.67;2.67;;;;;25.71;40.28;101118.47;4910571;28;45365;-95
2023/07/11 08:30:03;;;;;;;;;3.67;1.67;;;;;25.87;40.23;101125.00;4918788;28;46923;-94
2023/07/11 08:32:28;;;;;;;;;3.33;3.33;;;;;25.88;40.92;101106.16;4937393;28;45817;-95
2023/07/11 08:34:54;;;;;;;;;3.33;3.33;;;;;26.13;40.07;101126.97;4936694;28;45356;-93
2023/07/11 08:37:19;;;;;;;;;2.67;2.33;;;;;26.10;40.39;101109.44;4937993;28;45600;-95
2023/07/11 08:39:45;;;;;;;;;6.00;3.00;;;;;26.24;40.09;101118.78;4911321;28;47376;-94
2023/07/11 08:42:34;;;;;;;;;3.33;3.33;;;;;26.31;40.07;101113.69;4925570;28;45397;-94
2023/07/11 08:45:14;;;;;;;;;3.67;3.67;;;;;26.43;39.12;101133.00;4910242;28;45386;-93
2023/07/11 08:47:55;;;;;;;;;2.00;2.00;;;;;26.48;39.88;101128.03;4906147;28;45225;-94
2023/07/11 08:50:27;;;;;;;;;5.33;4.00;;;;;26.60;39.92;101134.00;4912276;28;47113;-94
2023/07/11 08:53:04;;;;;;;;;3.00;3.00;;;;;26.58;39.08;101108.44;4915028;28;45468;-92
2023/07/11 08:55:34;;;;;;;;;3.00;3.00;;;;;26.77;39.69;101116.31;4927296;28;45551;-96
2023/07/11 08:58:13;;;;;;;;;3.67;1.67;;;;;26.81;39.58;101101.66;4915040;28;45417;-94
2023/07/11 09:00:41;;;;;;;;;4.00;4.00;;;;;26.97;38.98;101118.84;4918164;28;47303;-94
2023/07/11 09:03:22;;;;;;;;;6.33;4.00;;;;;26.91;38.86;101090.91;4912283;28;46051;-94
2023/07/11 09:06:00;;;;;;;;;3.00;3.00;;;;;27.13;38.78;101104.78;4921177;28;45336;-94
2023/07/11 09:08:38;;;;;;;;;3.00;3.00;;;;;27.16;38.41;101095.63;4915534;28;45322;-90
2023/07/11 09:11:24;;;;;;;;;5.00;3.00;;;;;27.35;38.43;101105.25;4919662;28;46898;-92
2023/07/11 09:14:08;;;;;;;;;4.00;3.33;;;;;27.43;38.36;101099.13;4914078;28;45773;-92
2023/07/11 09:16:47;;;;;;;;;3.67;3.00;;;;;27.37;38.15;101076.56;4935768;28;45501;-92
2023/07/11 09:19:35;;;;;;;;;3.67;3.67;;;;;27.61;37.60;101094.59;4912674;28;45496;-92
2023/07/11 09:22:31;;;;;;;;;3.67;3.67;;;;;27.66;37.80;101083.41;4901489;29;46933;-92
2023/07/11 09:25:07;;;;;;;;;6.00;3.00;;;;;27.84;37.69;101095.84;4901166;29;45255;-92
2023/07/11 09:27:38;;;;;;;;;4.67;3.00;;;;;27.92;37.28;101093.22;4908323;28;45454;-91
2023/07/11 09:30:32;;;;;;;;;3.33;2.67;;;;;27.99;37.29;101088.91;4901751;29;45328;-91
2023/07/11 09:33:22;;;;;;;;;5.00;4.33;;;;;28.13;37.31;101097.28;4921488;28;47146;-92
2023/07/11 09:35:50;;;;;;;;;2.33;2.33;;;;;28.14;36.95;101091.78;4915287;28;45613;-91
2023/07/11 09:38:25;;;;;;;;;4.33;4.00;;;;;28.06;36.97;101057.00;4916116;28;45326;-92
2023/07/11 09:41:14;;;;;;;;;4.00;4.00;;;;;28.22;36.72;101064.22;4930752;28;45491;-92
2023/07/11 09:43:39;;;;;;;;;4.00;4.00;;;;;28.33;36.93;101063.06;4903344;28;45464;-92
2023/07/11 09:46:12;;;;;;;;;3.33;3.33;;;;;28.57;37.44;101068.63;4910704;28;45421;-91
2023/07/11 09:48:40;;;;;;;;;5.00;3.00;;;;;28.70;36.82;101074.34;4914709;28;45569;-91
2023/07/11 09:51:14;;;;;;;;;4.33;4.00;;;;;28.81;36.34;101068.63;4933325;28;45628;-92
2023/07/11 09:53:44;;;;;;;;;4.67;4.00;;;;;28.79;36.49;101057.25;4916918;28;47404;-94
2023/07/11 09:56:16;;;;;;;;;3.33;3.33;;;;;28.93;36.69;101055.75;4908412;28;45578;-91
2023/07/11 09:58:50;;;;;;;;;4.33;3.33;;;;;29.03;35.88;101057.44;4917033;28;45443;-92
2023/07/11 10:01:38;;;;;;;;;5.00;4.67;;;;;29.17;36.10;101071.97;4899581;28;45585;-91
2023/07/11 10:04:17;;;;;;;;;4.00;2.00;;;;;29.26;35.89;101062.91;4898428;29;45511;-91
2023/07/11 10:06:54;;;;;;;;;3.33;3.33;;;;;29.29;35.93;101054.50;4861653;29;45508;-91
2023/07/11 10:09:30;;;;;;;;;4.33;4.00;;;;;29.29;35.87;101038.44;4875313;29;45563;-93
2023/07/11 10:11:59;;;;;;;;;3.00;3.00;;;;;29.37;35.66;101028.69;4875442;29;45377;-91
2023/07/11 10:14:32;;;;;;;;;5.67;4.33;;;;;29.58;35.54;101042.38;4883423;29;48047;-92
2023/07/11 10:16:58;;;;;;;;;6.00;4.00;;;;;29.72;35.32;101038.13;4887200;29;45370;-91
2023/07/11 10:19:26;;;;;;;;;4.67;4.00;;;;;29.85;35.74;101031.38;4880187;29;45420;-91
2023/07/11 10:21:51;;;;;;;;;4.33;4.33;;;;;29.90;35.20;101012.91;4879037;29;45602;-92
2023/07/11 10:24:33;;;;;;;;;4.25;4.25;;;;;30.03;35.34;101019.53;4877695;29;46245;-92
2023/07/11 10:27:05;;;;;;;;;3.67;3.33;;;;;30.13;35.03;101004.06;4889722;29;45379;-92
2023/07/11 10:29:40;;;;;;;;;6.00;5.33;;;;;30.35;35.05;101023.00;4880661;29;45353;-92
2023/07/11 10:32:12;;;;;;;;;4.00;4.00;;;;;30.45;34.51;101018.22;4881155;29;45585;-90
2023/07/11 10:34:49;;;;;;;;;4.00;4.00;;;;;30.66;34.64;101012.19;4878456;29;47243;-92
2023/07/11 10:37:46;;;;;;;;;4.00;4.00;;;;;30.86;34.30;101014.38;4868749;29;45407;-92
2023/07/11 10:40:24;;;;;;;;;5.00;5.00;;;;;30.91;33.30;100987.78;4861093;29;46827;-91
2023/07/11 10:43:17;;;;;;;;;5.33;5.00;;;;;31.23;33.96;101009.09;4873311;29;45621;-91
2023/07/11 10:45:47;;;;;;;;;4.33;4.33;;;;;31.36;33.41;100999.56;4876498;29;48585;-92
2023/07/11 10:48:34;;;;;;;;;5.00;3.67;;;;;31.52;32.71;100995.84;4864561;29;45626;-92
2023/07/11 10:51:29;;;;;;;;;6.75;5.00;;;;;31.60;32.53;100979.59;4874610;28;45473;-93
2023/07/11 10:53:59;;;;;;;;;5.00;4.33;;;;;31.84;32.42;100996.41;4918528;28;45267;-91
2023/07/11 10:56:29;;;;;;;;;5.67;5.00;;;;;32.01;32.09;100988.94;4917116;28;45580;-92
2023/07/11 10:58:55;;;;;;;;;7.00;5.00;;;;;32.15;31.94;100991.78;4919118;28;45388;-92
2023/07/11 11:02:00;;;;;;;;;5.00;5.00;;;;;32.25;31.59;100976.13;4919671;28;45331;-92
2023/07/11 11:04:39;;;;;;;;;6.00;4.00;;;;;32.36;30.55;100972.91;4919492;28;45240;-91
2023/07/11 11:07:04;;;;;;;;;5.67;5.00;;;;;32.43;31.03;100975.69;4917920;28;46612;-93
2023/07/11 11:09:55;;;;;;;;;3.33;3.33;;;;;32.55;31.20;100959.81;4919032;28;45328;-92
2023/07/11 11:12:59;;;;;;;;;4.33;3.00;;;;;32.77;30.74;100954.38;4916229;28;45522;-91
2023/07/11 11:15:47;;;;;;;;;4.00;4.00;;;;;32.84;30.34;100951.69;4846031;29;45385;-92
2023/07/11 11:18:50;;;;;;;;;5.33;3.67;;;;;33.05;30.19;100945.44;4861253;29;46605;-93
2023/07/11 11:21:38;;;;;;;;;4.67;3.33;;;;;33.29;30.26;100952.16;4894801;29;45396;-92
2023/07/11 11:24:04;;;;;;;;;4.00;4.00;;;;;33.43;29.95;100941.41;4872214;29;45290;-93
2023/07/11 11:26:52;;;;;;;;;4.67;4.33;;;;;33.54;29.42;100940.00;4907278;28;45536;-92
2023/07/11 11:29:18;;;;;;;;;5.00;4.00;;;;;33.71;29.53;100940.47;4918987;28;46604;-92
2023/07/11 11:32:03;;;;;;;;;3.67;3.67;;;;;33.69;29.06;100926.38;4918662;28;45948;-92
2023/07/11 11:34:50;;;;;;;;;4.50;4.00;;;;;33.87;29.08;100941.13;4920018;28;45305;-93